Main page
METAR-TAF:

METAR-TAF

Airports :

Dortmund, Germany

Dortmund Airport

latitude: 51-31N, longitude: 007-37E, elevation: 127 m

Current weather observation

The report was made 22 minutes ago, at 08:50 UTC
Wind 6 kt from the Northeast, varying between North and East
Temperature 6°C
Humidity 81%
Pressure 1025 hPa
Visibility 10 km or more
no clouds below 1500 m and no cumulonimbus

METAR: EDLW 260850Z 05006KT 010V100 CAVOK 06/03 Q1025

Time: 11:12 (09:12 UTC)

Forecast

The report was made 4 hours and 12 minutes ago, at 05:00 UTC
Forecast valid from 26 at 06 UTC to 27 at 06 UTC
Wind 6 kt from the Northeast
Visibility 10 km or more
Broken clouds at a height of 400 ft
Becoming
from 26 at 06 UTC to 26 at 10 UTC
Scattered clouds at a height of 2500 ft
Becoming
from 26 at 20 UTC to 26 at 23 UTC
Wind 5 kt from the East/Southeast

TAF: EDLW 260500Z 2606/2706 05006KT 9999 BKN004 BECMG 2606/2610 SCT025 BECMG 2620/2623 11005KT

Weather observations and forecasts of more than 4000 airports (METAR and TAF reports).

The available stations are represented by yellow and red dots on the map.

Hover mouse over dot to see the name of the station.

Then click to see weather observations and forecasts.

To change the map : click on the green buttons with a black cross to zoom in, on the green button with a dash to zoom out, or on the green arrows for adjacent maps.


METAR-TAF: